sensor_id;sensor_type;location;lat;lon;timestamp;P1;durP1;ratioP1;P2;durP2;ratioP2
9904;SDS011;4991;43.566;27.820;2023-07-09T00:00:44;3.07;;;2.10;;
9904;SDS011;4991;43.566;27.820;2023-07-09T00:03:11;2.50;;;1.50;;
9904;SDS011;4991;43.566;27.820;2023-07-09T00:05:36;3.37;;;2.07;;
9904;SDS011;4991;43.566;27.820;2023-07-09T00:08:02;2.00;;;1.77;;
9904;SDS011;4991;43.566;27.820;2023-07-09T00:10:28;3.03;;;1.90;;
9904;SDS011;4991;43.566;27.820;2023-07-09T00:12:53;4.37;;;2.20;;
9904;SDS011;4991;43.566;27.820;2023-07-09T00:15:19;4.87;;;2.00;;
9904;SDS011;4991;43.566;27.820;2023-07-09T00:17:44;3.70;;;1.90;;
9904;SDS011;4991;43.566;27.820;2023-07-09T00:20:14;2.30;;;1.70;;
9904;SDS011;4991;43.566;27.820;2023-07-09T00:22:43;3.80;;;1.90;;
9904;SDS011;4991;43.566;27.820;2023-07-09T00:25:17;4.03;;;2.30;;
9904;SDS011;4991;43.566;27.820;2023-07-09T00:27:45;2.57;;;2.00;;
9904;SDS011;4991;43.566;27.820;2023-07-09T00:30:17;2.40;;;2.13;;
9904;SDS011;4991;43.566;27.820;2023-07-09T00:32:47;3.07;;;1.73;;
9904;SDS011;4991;43.566;27.820;2023-07-09T00:35:14;2.20;;;1.70;;
9904;SDS011;4991;43.566;27.820;2023-07-09T00:37:41;2.73;;;2.10;;
9904;SDS011;4991;43.566;27.820;2023-07-09T00:40:10;5.27;;;1.97;;
9904;SDS011;4991;43.566;27.820;2023-07-09T00:42:43;4.83;;;2.03;;
9904;SDS011;4991;43.566;27.820;2023-07-09T00:45:16;4.03;;;2.07;;
9904;SDS011;4991;43.566;27.820;2023-07-09T00:47:47;3.50;;;1.83;;
9904;SDS011;4991;43.566;27.820;2023-07-09T00:50:21;2.50;;;1.97;;
9904;SDS011;4991;43.566;27.820;2023-07-09T00:52:58;2.33;;;1.70;;
9904;SDS011;4991;43.566;27.820;2023-07-09T00:55:29;2.93;;;1.70;;
9904;SDS011;4991;43.566;27.820;2023-07-09T00:58:01;3.57;;;2.30;;
9904;SDS011;4991;43.566;27.820;2023-07-09T01:00:30;3.53;;;1.73;;
9904;SDS011;4991;43.566;27.820;2023-07-09T01:03:21;1.87;;;1.40;;
9904;SDS011;4991;43.566;27.820;2023-07-09T01:05:54;2.67;;;1.87;;
9904;SDS011;4991;43.566;27.820;2023-07-09T01:08:23;2.80;;;1.83;;
9904;SDS011;4991;43.566;27.820;2023-07-09T01:10:49;2.83;;;2.00;;
9904;SDS011;4991;43.566;27.820;2023-07-09T01:13:15;2.53;;;1.80;;
9904;SDS011;4991;43.566;27.820;2023-07-09T01:15:44;2.27;;;1.90;;
9904;SDS011;4991;43.566;27.820;2023-07-09T01:18:11;6.27;;;2.50;;
9904;SDS011;4991;43.566;27.820;2023-07-09T01:20:39;2.43;;;2.10;;
9904;SDS011;4991;43.566;27.820;2023-07-09T01:23:05;2.53;;;2.23;;
9904;SDS011;4991;43.566;27.820;2023-07-09T01:25:33;2.83;;;2.00;;
9904;SDS011;4991;43.566;27.820;2023-07-09T01:27:59;2.40;;;1.90;;
9904;SDS011;4991;43.566;27.820;2023-07-09T01:33:00;2.53;;;1.87;;
9904;SDS011;4991;43.566;27.820;2023-07-09T01:35:26;2.70;;;2.00;;
9904;SDS011;4991;43.566;27.820;2023-07-09T01:37:54;3.70;;;1.97;;
9904;SDS011;4991;43.566;27.820;2023-07-09T01:40:20;2.90;;;1.80;;
9904;SDS011;4991;43.566;27.820;2023-07-09T01:42:49;2.10;;;1.80;;
9904;SDS011;4991;43.566;27.820;2023-07-09T01:45:16;2.47;;;2.03;;
9904;SDS011;4991;43.566;27.820;2023-07-09T01:47:42;2.30;;;1.90;;
9904;SDS011;4991;43.566;27.820;2023-07-09T01:50:09;3.03;;;2.00;;
9904;SDS011;4991;43.566;27.820;2023-07-09T01:52:37;3.70;;;1.90;;
9904;SDS011;4991;43.566;27.820;2023-07-09T01:55:06;2.17;;;1.93;;
9904;SDS011;4991;43.566;27.820;2023-07-09T01:57:33;7.93;;;2.00;;
9904;SDS011;4991;43.566;27.820;2023-07-09T02:00:00;3.87;;;2.10;;
9904;SDS011;4991;43.566;27.820;2023-07-09T02:02:29;2.83;;;2.13;;
9904;SDS011;4991;43.566;27.820;2023-07-09T02:04:55;4.43;;;2.03;;
9904;SDS011;4991;43.566;27.820;2023-07-09T02:07:22;2.27;;;1.93;;
9904;SDS011;4991;43.566;27.820;2023-07-09T02:09:49;2.90;;;1.83;;
9904;SDS011;4991;43.566;27.820;2023-07-09T02:12:15;3.40;;;2.10;;
9904;SDS011;4991;43.566;27.820;2023-07-09T02:14:42;5.23;;;2.40;;
9904;SDS011;4991;43.566;27.820;2023-07-09T02:17:10;4.43;;;2.30;;
9904;SDS011;4991;43.566;27.820;2023-07-09T02:19:37;2.13;;;1.93;;
9904;SDS011;4991;43.566;27.820;2023-07-09T02:22:05;2.30;;;1.83;;
9904;SDS011;4991;43.566;27.820;2023-07-09T02:24:31;2.63;;;1.87;;
9904;SDS011;4991;43.566;27.820;2023-07-09T02:26:58;3.00;;;2.07;;
9904;SDS011;4991;43.566;27.820;2023-07-09T02:29:26;2.17;;;1.93;;
9904;SDS011;4991;43.566;27.820;2023-07-09T02:31:53;3.43;;;2.17;;
9904;SDS011;4991;43.566;27.820;2023-07-09T02:34:20;2.40;;;2.20;;
9904;SDS011;4991;43.566;27.820;2023-07-09T02:36:53;2.43;;;1.90;;
9904;SDS011;4991;43.566;27.820;2023-07-09T02:39:20;3.47;;;2.10;;
9904;SDS011;4991;43.566;27.820;2023-07-09T02:41:46;3.33;;;2.20;;
9904;SDS011;4991;43.566;27.820;2023-07-09T02:44:12;2.63;;;2.13;;
9904;SDS011;4991;43.566;27.820;2023-07-09T02:46:38;2.83;;;2.07;;
9904;SDS011;4991;43.566;27.820;2023-07-09T02:49:04;4.17;;;2.80;;
9904;SDS011;4991;43.566;27.820;2023-07-09T02:51:30;3.87;;;2.23;;
9904;SDS011;4991;43.566;27.820;2023-07-09T02:53:57;3.77;;;2.23;;
9904;SDS011;4991;43.566;27.820;2023-07-09T02:56:23;3.20;;;2.00;;
9904;SDS011;4991;43.566;27.820;2023-07-09T02:58:49;3.47;;;2.13;;
9904;SDS011;4991;43.566;27.820;2023-07-09T03:01:16;5.33;;;2.73;;
9904;SDS011;4991;43.566;27.820;2023-07-09T03:03:42;3.30;;;2.07;;
9904;SDS011;4991;43.566;27.820;2023-07-09T03:06:08;1.97;;;1.83;;
9904;SDS011;4991;43.566;27.820;2023-07-09T03:08:35;2.60;;;2.10;;
9904;SDS011;4991;43.566;27.820;2023-07-09T03:11:08;2.33;;;2.10;;
9904;SDS011;4991;43.566;27.820;2023-07-09T03:13:38;2.60;;;2.20;;
9904;SDS011;4991;43.566;27.820;2023-07-09T03:16:03;3.00;;;2.30;;
9904;SDS011;4991;43.566;27.820;2023-07-09T03:18:29;4.97;;;2.03;;
9904;SDS011;4991;43.566;27.820;2023-07-09T03:20:55;3.43;;;2.47;;
9904;SDS011;4991;43.566;27.820;2023-07-09T03:23:21;3.47;;;2.00;;
9904;SDS011;4991;43.566;27.820;2023-07-09T03:25:47;3.43;;;2.30;;
9904;SDS011;4991;43.566;27.820;2023-07-09T03:28:12;3.20;;;1.73;;
9904;SDS011;4991;43.566;27.820;2023-07-09T03:30:42;3.40;;;2.37;;
9904;SDS011;4991;43.566;27.820;2023-07-09T03:33:10;2.57;;;2.13;;
9904;SDS011;4991;43.566;27.820;2023-07-09T03:35:36;3.10;;;1.90;;
9904;SDS011;4991;43.566;27.820;2023-07-09T03:38:04;3.07;;;2.07;;
9904;SDS011;4991;43.566;27.820;2023-07-09T03:40:30;3.07;;;2.17;;
9904;SDS011;4991;43.566;27.820;2023-07-09T03:42:56;5.20;;;2.40;;
9904;SDS011;4991;43.566;27.820;2023-07-09T03:45:22;2.37;;;2.17;;
9904;SDS011;4991;43.566;27.820;2023-07-09T03:47:48;4.23;;;2.23;;
9904;SDS011;4991;43.566;27.820;2023-07-09T03:50:14;2.73;;;2.13;;
9904;SDS011;4991;43.566;27.820;2023-07-09T03:52:40;4.27;;;1.80;;
9904;SDS011;4991;43.566;27.820;2023-07-09T03:55:05;6.77;;;2.60;;
9904;SDS011;4991;43.566;27.820;2023-07-09T03:57:32;4.27;;;2.33;;
9904;SDS011;4991;43.566;27.820;2023-07-09T03:59:58;4.07;;;2.30;;
9904;SDS011;4991;43.566;27.820;2023-07-09T04:02:24;3.07;;;1.97;;
9904;SDS011;4991;43.566;27.820;2023-07-09T04:04:50;2.83;;;2.10;;
9904;SDS011;4991;43.566;27.820;2023-07-09T04:07:15;4.27;;;1.87;;
9904;SDS011;4991;43.566;27.820;2023-07-09T04:09:41;2.47;;;2.27;;
9904;SDS011;4991;43.566;27.820;2023-07-09T04:12:08;2.60;;;2.30;;
9904;SDS011;4991;43.566;27.820;2023-07-09T04:14:34;4.23;;;2.20;;
9904;SDS011;4991;43.566;27.820;2023-07-09T04:17:00;4.97;;;2.30;;
9904;SDS011;4991;43.566;27.820;2023-07-09T04:19:26;3.77;;;2.20;;
9904;SDS011;4991;43.566;27.820;2023-07-09T04:21:51;3.77;;;2.20;;
9904;SDS011;4991;43.566;27.820;2023-07-09T04:24:18;2.80;;;2.07;;
9904;SDS011;4991;43.566;27.820;2023-07-09T04:26:44;3.33;;;2.17;;
9904;SDS011;4991;43.566;27.820;2023-07-09T04:29:09;3.53;;;2.00;;
9904;SDS011;4991;43.566;27.820;2023-07-09T04:31:35;3.10;;;2.07;;
9904;SDS011;4991;43.566;27.820;2023-07-09T04:34:01;3.30;;;2.07;;
9904;SDS011;4991;43.566;27.820;2023-07-09T04:36:27;5.07;;;1.93;;
9904;SDS011;4991;43.566;27.820;2023-07-09T04:38:52;2.87;;;2.20;;
9904;SDS011;4991;43.566;27.820;2023-07-09T04:41:18;2.43;;;2.17;;
9904;SDS011;4991;43.566;27.820;2023-07-09T04:43:44;2.43;;;2.10;;
9904;SDS011;4991;43.566;27.820;2023-07-09T04:46:09;2.20;;;1.97;;
9904;SDS011;4991;43.566;27.820;2023-07-09T04:48:35;2.70;;;1.87;;
9904;SDS011;4991;43.566;27.820;2023-07-09T04:51:01;2.37;;;2.10;;
9904;SDS011;4991;43.566;27.820;2023-07-09T04:53:26;2.13;;;1.90;;
9904;SDS011;4991;43.566;27.820;2023-07-09T04:55:52;2.37;;;2.10;;
9904;SDS011;4991;43.566;27.820;2023-07-09T04:58:18;3.40;;;2.03;;
9904;SDS011;4991;43.566;27.820;2023-07-09T05:00:44;2.63;;;2.00;;
9904;SDS011;4991;43.566;27.820;2023-07-09T05:03:10;5.90;;;2.27;;
9904;SDS011;4991;43.566;27.820;2023-07-09T05:05:46;2.40;;;1.97;;
9904;SDS011;4991;43.566;27.820;2023-07-09T05:08:12;5.37;;;2.33;;
9904;SDS011;4991;43.566;27.820;2023-07-09T05:10:42;2.17;;;2.00;;
9904;SDS011;4991;43.566;27.820;2023-07-09T05:13:12;2.50;;;2.30;;
9904;SDS011;4991;43.566;27.820;2023-07-09T05:15:42;2.67;;;1.90;;
9904;SDS011;4991;43.566;27.820;2023-07-09T05:18:10;2.83;;;1.80;;
9904;SDS011;4991;43.566;27.820;2023-07-09T05:20:36;4.03;;;2.10;;
9904;SDS011;4991;43.566;27.820;2023-07-09T05:23:02;4.60;;;2.20;;
9904;SDS011;4991;43.566;27.820;2023-07-09T05:25:28;4.20;;;2.27;;
9904;SDS011;4991;43.566;27.820;2023-07-09T05:27:54;2.20;;;1.83;;
9904;SDS011;4991;43.566;27.820;2023-07-09T05:30:19;2.90;;;2.00;;
9904;SDS011;4991;43.566;27.820;2023-07-09T05:32:45;2.77;;;1.87;;
9904;SDS011;4991;43.566;27.820;2023-07-09T05:35:11;3.80;;;2.50;;
9904;SDS011;4991;43.566;27.820;2023-07-09T05:37:37;3.17;;;2.03;;
9904;SDS011;4991;43.566;27.820;2023-07-09T05:40:04;3.27;;;2.50;;
9904;SDS011;4991;43.566;27.820;2023-07-09T05:42:31;3.23;;;2.50;;
9904;SDS011;4991;43.566;27.820;2023-07-09T05:44:57;4.10;;;2.70;;
9904;SDS011;4991;43.566;27.820;2023-07-09T05:47:23;5.40;;;2.03;;
9904;SDS011;4991;43.566;27.820;2023-07-09T05:49:49;3.27;;;2.50;;
9904;SDS011;4991;43.566;27.820;2023-07-09T05:52:16;3.33;;;2.07;;
9904;SDS011;4991;43.566;27.820;2023-07-09T05:54:42;5.87;;;1.73;;
9904;SDS011;4991;43.566;27.820;2023-07-09T05:57:09;4.00;;;2.43;;
9904;SDS011;4991;43.566;27.820;2023-07-09T05:59:35;4.37;;;2.07;;
9904;SDS011;4991;43.566;27.820;2023-07-09T06:02:01;4.37;;;2.70;;
9904;SDS011;4991;43.566;27.820;2023-07-09T06:04:28;11.33;;;2.00;;
9904;SDS011;4991;43.566;27.820;2023-07-09T06:06:56;3.17;;;2.30;;
9904;SDS011;4991;43.566;27.820;2023-07-09T06:09:22;2.60;;;2.40;;
9904;SDS011;4991;43.566;27.820;2023-07-09T06:11:48;4.13;;;1.80;;
9904;SDS011;4991;43.566;27.820;2023-07-09T06:14:14;4.17;;;2.23;;
9904;SDS011;4991;43.566;27.820;2023-07-09T06:16:42;6.40;;;2.43;;
9904;SDS011;4991;43.566;27.820;2023-07-09T06:19:08;3.53;;;2.03;;
9904;SDS011;4991;43.566;27.820;2023-07-09T06:21:35;3.93;;;2.50;;
9904;SDS011;4991;43.566;27.820;2023-07-09T06:24:00;3.87;;;2.17;;
9904;SDS011;4991;43.566;27.820;2023-07-09T06:26:26;4.07;;;2.30;;
9904;SDS011;4991;43.566;27.820;2023-07-09T06:28:52;3.10;;;2.67;;
9904;SDS011;4991;43.566;27.820;2023-07-09T06:31:17;3.97;;;2.10;;
9904;SDS011;4991;43.566;27.820;2023-07-09T06:33:46;2.90;;;2.10;;
9904;SDS011;4991;43.566;27.820;2023-07-09T06:36:12;3.87;;;2.80;;
9904;SDS011;4991;43.566;27.820;2023-07-09T06:38:38;5.60;;;1.93;;
9904;SDS011;4991;43.566;27.820;2023-07-09T06:41:04;3.53;;;2.10;;
9904;SDS011;4991;43.566;27.820;2023-07-09T06:43:30;2.87;;;2.07;;
9904;SDS011;4991;43.566;27.820;2023-07-09T06:45:57;6.90;;;2.60;;
9904;SDS011;4991;43.566;27.820;2023-07-09T06:48:25;7.57;;;2.38;;
9904;SDS011;4991;43.566;27.820;2023-07-09T06:50:53;2.50;;;1.80;;
9904;SDS011;4991;43.566;27.820;2023-07-09T06:53:22;2.30;;;2.03;;
9904;SDS011;4991;43.566;27.820;2023-07-09T06:55:48;8.63;;;2.47;;
9904;SDS011;4991;43.566;27.820;2023-07-09T06:58:15;6.07;;;2.63;;
9904;SDS011;4991;43.566;27.820;2023-07-09T07:00:41;4.10;;;2.10;;
9904;SDS011;4991;43.566;27.820;2023-07-09T07:03:07;3.13;;;2.37;;
9904;SDS011;4991;43.566;27.820;2023-07-09T07:05:34;3.80;;;2.30;;
9904;SDS011;4991;43.566;27.820;2023-07-09T07:07:59;3.37;;;2.17;;
9904;SDS011;4991;43.566;27.820;2023-07-09T07:10:25;3.37;;;2.57;;
9904;SDS011;4991;43.566;27.820;2023-07-09T07:12:52;7.43;;;2.70;;
9904;SDS011;4991;43.566;27.820;2023-07-09T07:15:18;3.73;;;2.07;;
9904;SDS011;4991;43.566;27.820;2023-07-09T07:17:44;2.50;;;2.03;;
9904;SDS011;4991;43.566;27.820;2023-07-09T07:20:11;2.25;;;2.00;;
9904;SDS011;4991;43.566;27.820;2023-07-09T07:22:38;11.87;;;2.13;;
9904;SDS011;4991;43.566;27.820;2023-07-09T07:25:05;2.23;;;2.03;;
9904;SDS011;4991;43.566;27.820;2023-07-09T07:27:32;3.20;;;2.33;;
9904;SDS011;4991;43.566;27.820;2023-07-09T07:29:57;4.38;;;2.15;;
9904;SDS011;4991;43.566;27.820;2023-07-09T07:32:23;4.60;;;2.53;;
9904;SDS011;4991;43.566;27.820;2023-07-09T07:34:49;5.40;;;2.75;;
9904;SDS011;4991;43.566;27.820;2023-07-09T07:37:17;2.88;;;2.40;;
9904;SDS011;4991;43.566;27.820;2023-07-09T07:39:47;2.58;;;2.20;;
9904;SDS011;4991;43.566;27.820;2023-07-09T07:42:13;2.47;;;2.10;;
9904;SDS011;4991;43.566;27.820;2023-07-09T07:44:39;2.47;;;2.15;;
9904;SDS011;4991;43.566;27.820;2023-07-09T07:47:04;2.00;;;1.77;;
9904;SDS011;4991;43.566;27.820;2023-07-09T07:49:31;4.20;;;2.05;;
9904;SDS011;4991;43.566;27.820;2023-07-09T07:51:57;2.67;;;2.47;;
9904;SDS011;4991;43.566;27.820;2023-07-09T07:54:22;3.58;;;2.13;;
9904;SDS011;4991;43.566;27.820;2023-07-09T07:56:48;6.38;;;2.50;;
9904;SDS011;4991;43.566;27.820;2023-07-09T07:59:13;3.03;;;2.30;;
9904;SDS011;4991;43.566;27.820;2023-07-09T08:01:39;3.70;;;2.42;;
9904;SDS011;4991;43.566;27.820;2023-07-09T08:04:05;2.58;;;1.95;;
9904;SDS011;4991;43.566;27.820;2023-07-09T08:06:31;3.45;;;2.70;;
9904;SDS011;4991;43.566;27.820;2023-07-09T08:08:57;4.00;;;2.38;;
9904;SDS011;4991;43.566;27.820;2023-07-09T08:11:23;3.42;;;2.72;;
9904;SDS011;4991;43.566;27.820;2023-07-09T08:13:50;4.38;;;2.63;;
9904;SDS011;4991;43.566;27.820;2023-07-09T08:16:15;3.67;;;2.55;;
9904;SDS011;4991;43.566;27.820;2023-07-09T08:18:42;3.22;;;2.10;;
9904;SDS011;4991;43.566;27.820;2023-07-09T08:21:08;3.28;;;2.60;;
9904;SDS011;4991;43.566;27.820;2023-07-09T08:23:34;2.95;;;2.45;;
9904;SDS011;4991;43.566;27.820;2023-07-09T08:26:01;5.07;;;2.33;;
9904;SDS011;4991;43.566;27.820;2023-07-09T08:28:28;6.97;;;2.38;;
9904;SDS011;4991;43.566;27.820;2023-07-09T08:30:54;3.47;;;2.20;;
9904;SDS011;4991;43.566;27.820;2023-07-09T08:33:21;3.20;;;2.35;;
9904;SDS011;4991;43.566;27.820;2023-07-09T08:35:51;4.15;;;2.25;;
9904;SDS011;4991;43.566;27.820;2023-07-09T08:38:18;3.40;;;2.15;;
9904;SDS011;4991;43.566;27.820;2023-07-09T08:40:49;2.45;;;2.08;;
9904;SDS011;4991;43.566;27.820;2023-07-09T08:43:39;2.67;;;1.98;;
9904;SDS011;4991;43.566;27.820;2023-07-09T08:48:54;5.93;;;2.38;;
9904;SDS011;4991;43.566;27.820;2023-07-09T08:53:59;5.43;;;2.30;;
9904;SDS011;4991;43.566;27.820;2023-07-09T08:56:26;3.30;;;2.40;;
9904;SDS011;4991;43.566;27.820;2023-07-09T08:58:54;3.03;;;2.53;;
9904;SDS011;4991;43.566;27.820;2023-07-09T09:01:23;2.30;;;2.10;;
9904;SDS011;4991;43.566;27.820;2023-07-09T09:03:53;4.35;;;2.60;;
9904;SDS011;4991;43.566;27.820;2023-07-09T09:06:27;4.13;;;2.67;;
9904;SDS011;4991;43.566;27.820;2023-07-09T09:11:43;2.88;;;2.50;;
9904;SDS011;4991;43.566;27.820;2023-07-09T09:14:29;3.65;;;2.40;;
9904;SDS011;4991;43.566;27.820;2023-07-09T09:16:55;4.80;;;2.53;;
9904;SDS011;4991;43.566;27.820;2023-07-09T09:19:23;3.72;;;2.47;;
9904;SDS011;4991;43.566;27.820;2023-07-09T09:22:01;3.25;;;2.80;;
9904;SDS011;4991;43.566;27.820;2023-07-09T09:24:31;4.93;;;2.20;;
9904;SDS011;4991;43.566;27.820;2023-07-09T09:27:02;2.40;;;2.00;;
9904;SDS011;4991;43.566;27.820;2023-07-09T09:29:28;3.85;;;2.15;;
9904;SDS011;4991;43.566;27.820;2023-07-09T09:31:57;8.60;;;2.60;;
9904;SDS011;4991;43.566;27.820;2023-07-09T09:34:28;3.72;;;2.47;;
9904;SDS011;4991;43.566;27.820;2023-07-09T09:36:55;2.47;;;2.28;;
9904;SDS011;4991;43.566;27.820;2023-07-09T09:39:23;3.58;;;2.70;;
9904;SDS011;4991;43.566;27.820;2023-07-09T09:41:52;2.88;;;2.60;;
9904;SDS011;4991;43.566;27.820;2023-07-09T09:44:23;2.60;;;2.30;;
9904;SDS011;4991;43.566;27.820;2023-07-09T09:46:51;3.72;;;2.42;;
9904;SDS011;4991;43.566;27.820;2023-07-09T09:49:17;2.20;;;2.00;;
9904;SDS011;4991;43.566;27.820;2023-07-09T09:51:44;3.08;;;1.80;;
9904;SDS011;4991;43.566;27.820;2023-07-09T09:54:21;2.88;;;2.60;;
9904;SDS011;4991;43.566;27.820;2023-07-09T09:56:50;2.95;;;2.35;;
9904;SDS011;4991;43.566;27.820;2023-07-09T09:59:24;2.88;;;2.20;;
9904;SDS011;4991;43.566;27.820;2023-07-09T10:02:02;4.43;;;2.42;;
9904;SDS011;4991;43.566;27.820;2023-07-09T10:04:39;2.85;;;2.65;;
9904;SDS011;4991;43.566;27.820;2023-07-09T10:07:06;3.03;;;2.58;;
9904;SDS011;4991;43.566;27.820;2023-07-09T10:18:02;2.75;;;2.10;;
9904;SDS011;4991;43.566;27.820;2023-07-09T10:20:47;3.05;;;2.28;;
9904;SDS011;4991;43.566;27.820;2023-07-09T10:23:33;6.60;;;3.22;;
9904;SDS011;4991;43.566;27.820;2023-07-09T10:26:51;3.55;;;2.55;;
9904;SDS011;4991;43.566;27.820;2023-07-09T10:29:25;3.63;;;2.53;;
9904;SDS011;4991;43.566;27.820;2023-07-09T10:34:44;2.97;;;2.00;;
9904;SDS011;4991;43.566;27.820;2023-07-09T10:40:08;4.40;;;2.70;;
9904;SDS011;4991;43.566;27.820;2023-07-09T10:42:55;4.95;;;2.55;;
9904;SDS011;4991;43.566;27.820;2023-07-09T10:45:29;3.42;;;2.55;;
9904;SDS011;4991;43.566;27.820;2023-07-09T10:48:57;3.30;;;2.53;;
9904;SDS011;4991;43.566;27.820;2023-07-09T10:51:28;3.83;;;2.50;;
9904;SDS011;4991;43.566;27.820;2023-07-09T10:57:03;2.67;;;2.42;;
9904;SDS011;4991;43.566;27.820;2023-07-09T10:59:39;4.95;;;2.35;;
9904;SDS011;4991;43.566;27.820;2023-07-09T11:02:15;4.70;;;2.80;;
9904;SDS011;4991;43.566;27.820;2023-07-09T11:04:53;4.93;;;2.45;;
9904;SDS011;4991;43.566;27.820;2023-07-09T11:08:15;2.63;;;2.00;;
9904;SDS011;4991;43.566;27.820;2023-07-09T11:10:32;2.78;;;2.58;;
9904;SDS011;4991;43.566;27.820;2023-07-09T11:13:11;2.40;;;2.20;;
9904;SDS011;4991;43.566;27.820;2023-07-09T11:15:41;4.32;;;2.78;;
9904;SDS011;4991;43.566;27.820;2023-07-09T11:18:13;3.15;;;2.45;;
9904;SDS011;4991;43.566;27.820;2023-07-09T11:20:59;3.08;;;2.30;;
9904;SDS011;4991;43.566;27.820;2023-07-09T11:26:12;3.35;;;2.70;;
9904;SDS011;4991;43.566;27.820;2023-07-09T11:28:50;2.63;;;2.30;;
9904;SDS011;4991;43.566;27.820;2023-07-09T11:31:38;2.97;;;2.15;;
9904;SDS011;4991;43.566;27.820;2023-07-09T11:34:09;3.65;;;3.35;;
9904;SDS011;4991;43.566;27.820;2023-07-09T11:36:47;7.85;;;3.03;;
9904;SDS011;4991;43.566;27.820;2023-07-09T11:39:23;6.60;;;2.30;;
9904;SDS011;4991;43.566;27.820;2023-07-09T11:41:52;10.25;;;3.17;;
9904;SDS011;4991;43.566;27.820;2023-07-09T11:44:19;4.30;;;2.63;;
9904;SDS011;4991;43.566;27.820;2023-07-09T11:46:51;4.35;;;2.65;;
9904;SDS011;4991;43.566;27.820;2023-07-09T11:49:23;3.47;;;2.42;;
9904;SDS011;4991;43.566;27.820;2023-07-09T11:51:57;3.38;;;2.55;;
9904;SDS011;4991;43.566;27.820;2023-07-09T11:54:27;3.22;;;2.85;;
9904;SDS011;4991;43.566;27.820;2023-07-09T11:56:56;5.72;;;2.60;;
9904;SDS011;4991;43.566;27.820;2023-07-09T11:59:22;6.72;;;2.60;;
9904;SDS011;4991;43.566;27.820;2023-07-09T12:01:48;5.63;;;2.53;;
9904;SDS011;4991;43.566;27.820;2023-07-09T12:04:18;2.60;;;2.40;;
9904;SDS011;4991;43.566;27.820;2023-07-09T12:06:46;6.65;;;2.50;;
9904;SDS011;4991;43.566;27.820;2023-07-09T12:09:16;2.90;;;2.50;;
9904;SDS011;4991;43.566;27.820;2023-07-09T12:11:44;2.33;;;2.10;;
9904;SDS011;4991;43.566;27.820;2023-07-09T12:14:12;2.83;;;2.45;;
9904;SDS011;4991;43.566;27.820;2023-07-09T12:16:41;3.15;;;2.58;;
9904;SDS011;4991;43.566;27.820;2023-07-09T12:19:11;2.35;;;2.08;;
9904;SDS011;4991;43.566;27.820;2023-07-09T12:21:39;2.65;;;2.38;;
9904;SDS011;4991;43.566;27.820;2023-07-09T12:24:17;3.65;;;2.60;;
9904;SDS011;4991;43.566;27.820;2023-07-09T12:26:53;2.45;;;2.25;;
9904;SDS011;4991;43.566;27.820;2023-07-09T12:29:27;2.95;;;2.50;;
9904;SDS011;4991;43.566;27.820;2023-07-09T12:32:02;3.63;;;2.42;;
9904;SDS011;4991;43.566;27.820;2023-07-09T12:34:32;4.00;;;2.58;;
9904;SDS011;4991;43.566;27.820;2023-07-09T12:36:57;6.45;;;2.95;;
9904;SDS011;4991;43.566;27.820;2023-07-09T12:39:27;3.45;;;2.85;;
9904;SDS011;4991;43.566;27.820;2023-07-09T12:41:55;4.47;;;2.58;;
9904;SDS011;4991;43.566;27.820;2023-07-09T12:44:24;3.78;;;2.80;;
9904;SDS011;4991;43.566;27.820;2023-07-09T12:46:52;5.07;;;2.70;;
9904;SDS011;4991;43.566;27.820;2023-07-09T12:49:22;6.63;;;2.70;;
9904;SDS011;4991;43.566;27.820;2023-07-09T12:51:56;8.35;;;2.47;;
9904;SDS011;4991;43.566;27.820;2023-07-09T12:54:22;4.13;;;2.63;;
9904;SDS011;4991;43.566;27.820;2023-07-09T12:56:52;2.78;;;2.55;;
9904;SDS011;4991;43.566;27.820;2023-07-09T13:01:56;3.42;;;2.65;;
9904;SDS011;4991;43.566;27.820;2023-07-09T13:04:33;2.30;;;2.10;;
9904;SDS011;4991;43.566;27.820;2023-07-09T13:07:02;2.83;;;2.38;;
9904;SDS011;4991;43.566;27.820;2023-07-09T13:09:28;3.05;;;2.17;;
9904;SDS011;4991;43.566;27.820;2023-07-09T13:11:54;4.00;;;2.80;;
9904;SDS011;4991;43.566;27.820;2023-07-09T13:14:27;2.80;;;2.55;;
9904;SDS011;4991;43.566;27.820;2023-07-09T13:17:04;3.42;;;2.65;;
9904;SDS011;4991;43.566;27.820;2023-07-09T13:19:31;3.03;;;2.72;;
9904;SDS011;4991;43.566;27.820;2023-07-09T13:21:57;3.45;;;2.63;;
9904;SDS011;4991;43.566;27.820;2023-07-09T13:24:24;2.92;;;2.30;;
9904;SDS011;4991;43.566;27.820;2023-07-09T13:26:53;3.65;;;2.20;;
9904;SDS011;4991;43.566;27.820;2023-07-09T13:29:19;5.53;;;2.60;;
9904;SDS011;4991;43.566;27.820;2023-07-09T13:31:46;4.55;;;2.67;;
9904;SDS011;4991;43.566;27.820;2023-07-09T13:34:22;4.20;;;2.90;;
9904;SDS011;4991;43.566;27.820;2023-07-09T13:36:50;4.93;;;3.45;;
9904;SDS011;4991;43.566;27.820;2023-07-09T13:39:19;2.97;;;2.67;;
9904;SDS011;4991;43.566;27.820;2023-07-09T13:41:46;13.20;;;2.90;;
9904;SDS011;4991;43.566;27.820;2023-07-09T13:44:14;16.23;;;2.40;;
9904;SDS011;4991;43.566;27.820;2023-07-09T13:46:45;3.05;;;2.75;;
9904;SDS011;4991;43.566;27.820;2023-07-09T13:49:11;5.28;;;2.60;;
9904;SDS011;4991;43.566;27.820;2023-07-09T13:51:40;3.13;;;2.60;;
9904;SDS011;4991;43.566;27.820;2023-07-09T13:54:15;7.47;;;2.63;;
9904;SDS011;4991;43.566;27.820;2023-07-09T13:56:44;2.72;;;2.47;;
9904;SDS011;4991;43.566;27.820;2023-07-09T13:59:17;2.75;;;2.33;;
9904;SDS011;4991;43.566;27.820;2023-07-09T14:01:45;3.10;;;2.75;;
9904;SDS011;4991;43.566;27.820;2023-07-09T14:04:12;4.65;;;2.78;;
9904;SDS011;4991;43.566;27.820;2023-07-09T14:06:39;3.25;;;2.95;;
9904;SDS011;4991;43.566;27.820;2023-07-09T14:09:06;5.10;;;2.75;;
9904;SDS011;4991;43.566;27.820;2023-07-09T14:11:34;5.55;;;2.47;;
9904;SDS011;4991;43.566;27.820;2023-07-09T14:16:44;4.22;;;2.63;;
9904;SDS011;4991;43.566;27.820;2023-07-09T14:19:17;3.90;;;2.67;;
9904;SDS011;4991;43.566;27.820;2023-07-09T14:21:46;2.70;;;2.28;;
9904;SDS011;4991;43.566;27.820;2023-07-09T14:26:52;3.13;;;2.28;;
9904;SDS011;4991;43.566;27.820;2023-07-09T14:29:20;4.30;;;3.00;;
9904;SDS011;4991;43.566;27.820;2023-07-09T14:31:47;3.90;;;3.03;;
9904;SDS011;4991;43.566;27.820;2023-07-09T14:34:21;2.92;;;2.72;;
9904;SDS011;4991;43.566;27.820;2023-07-09T14:36:48;4.35;;;2.40;;
9904;SDS011;4991;43.566;27.820;2023-07-09T14:39:14;2.83;;;2.55;;
9904;SDS011;4991;43.566;27.820;2023-07-09T14:41:40;3.47;;;3.17;;
9904;SDS011;4991;43.566;27.820;2023-07-09T14:44:27;2.67;;;2.47;;
9904;SDS011;4991;43.566;27.820;2023-07-09T14:46:54;3.60;;;2.70;;
9904;SDS011;4991;43.566;27.820;2023-07-09T14:49:22;3.10;;;2.67;;
9904;SDS011;4991;43.566;27.820;2023-07-09T14:51:48;5.30;;;2.42;;
9904;SDS011;4991;43.566;27.820;2023-07-09T14:54:26;5.22;;;3.58;;
9904;SDS011;4991;43.566;27.820;2023-07-09T14:56:54;3.88;;;2.90;;
9904;SDS011;4991;43.566;27.820;2023-07-09T14:59:22;4.22;;;3.15;;
9904;SDS011;4991;43.566;27.820;2023-07-09T15:01:48;4.35;;;2.78;;
9904;SDS011;4991;43.566;27.820;2023-07-09T15:06:49;6.95;;;2.70;;
9904;SDS011;4991;43.566;27.820;2023-07-09T15:09:16;3.00;;;2.75;;
9904;SDS011;4991;43.566;27.820;2023-07-09T15:11:42;2.97;;;2.65;;
9904;SDS011;4991;43.566;27.820;2023-07-09T15:14:11;5.03;;;3.08;;
9904;SDS011;4991;43.566;27.820;2023-07-09T15:16:37;4.07;;;2.72;;
9904;SDS011;4991;43.566;27.820;2023-07-09T15:19:12;3.70;;;2.97;;
9904;SDS011;4991;43.566;27.820;2023-07-09T15:21:39;3.22;;;2.90;;
9904;SDS011;4991;43.566;27.820;2023-07-09T15:24:05;3.60;;;3.03;;
9904;SDS011;4991;43.566;27.820;2023-07-09T15:26:36;5.22;;;3.40;;
9904;SDS011;4991;43.566;27.820;2023-07-09T15:29:01;5.00;;;3.55;;
9904;SDS011;4991;43.566;27.820;2023-07-09T15:31:28;3.00;;;2.67;;
9904;SDS011;4991;43.566;27.820;2023-07-09T15:33:53;5.30;;;3.13;;
9904;SDS011;4991;43.566;27.820;2023-07-09T15:36:19;7.72;;;3.80;;
9904;SDS011;4991;43.566;27.820;2023-07-09T15:38:45;4.93;;;3.35;;
9904;SDS011;4991;43.566;27.820;2023-07-09T15:41:14;3.97;;;3.58;;
9904;SDS011;4991;43.566;27.820;2023-07-09T15:43:43;5.25;;;3.38;;
9904;SDS011;4991;43.566;27.820;2023-07-09T15:46:11;6.15;;;3.60;;
9904;SDS011;4991;43.566;27.820;2023-07-09T15:48:44;4.05;;;2.80;;
9904;SDS011;4991;43.566;27.820;2023-07-09T15:51:11;6.97;;;3.20;;